Terminal Aerodrome Forecast
Issued by NWS Spokane, WA

Home | Current Version | Previous Version | Text Only | Print | Product List | Glossary On
Versions: 1 2 3 4 5 6 7 8 9 10 11 12 13 14 15 16
000
FTUS46 KOTX 191743 CCA
TAFLWS
TAF COR
KLWS 191743Z 1918/2018 08008KT P6SM FEW100 BKN200
     FM192000 31008KT P6SM SCT100 BKN140
     FM192300 29014G23KT P6SM BKN080 OVC120
     FM200300 27013G25KT P6SM FEW100
     FM200700 28008KT P6SM FEW100=

USA.gov is the U.S. government's official web portal to all federal, state and local government web resources and services.